Time;durP1;ratioP1;P1;durP2;ratioP2;P2;SDS_P1;SDS_P2;PMS_P1;PMS_P2;Temp;Humidity;BMP_temperature;BMP_pressure;BME280_temperature;BME280_humidity;BME280_pressure;Samples;Min_cycle;Max_cycle;Signal;HPM_P1;HPM_P2
2024/04/19 00:01:54;;;;;;;5.90;2.40;;;;;;;;;;5341371;26;20011;-72
2024/04/19 00:04:21;;;;;;;6.90;2.67;;;;;;;;;;5341456;26;20036;-72
2024/04/19 00:06:50;;;;;;;6.40;3.00;;;;;;;;;;5342083;26;20009;-71
2024/04/19 00:09:16;;;;;;;5.75;2.22;;;;;;;;;;5341966;26;20024;-72
2024/04/19 00:11:43;;;;;;;6.90;2.42;;;;;;;;;;5342090;26;20009;-72
2024/04/19 00:14:11;;;;;;;7.47;2.92;;;;;;;;;;5342178;26;20014;-72
2024/04/19 00:16:37;;;;;;;7.82;2.70;;;;;;;;;;5341720;26;20079;-71
2024/04/19 00:19:05;;;;;;;5.55;2.75;;;;;;;;;;5342041;26;20005;-71
2024/04/19 00:21:32;;;;;;;6.95;2.75;;;;;;;;;;5320217;26;20001;-72
2024/04/19 00:23:58;;;;;;;8.48;2.78;;;;;;;;;;5342906;26;20428;-72
2024/04/19 00:26:25;;;;;;;6.78;3.00;;;;;;;;;;5318346;26;20015;-72
2024/04/19 00:28:52;;;;;;;6.10;2.78;;;;;;;;;;5342419;26;20005;-72
2024/04/19 00:31:19;;;;;;;6.43;2.90;;;;;;;;;;5341109;26;20008;-72
2024/04/19 00:33:46;;;;;;;7.95;2.38;;;;;;;;;;5341731;26;20462;-72
2024/04/19 00:36:13;;;;;;;6.75;3.33;;;;;;;;;;5341419;26;20136;-72
2024/04/19 00:38:40;;;;;;;5.50;2.90;;;;;;;;;;5341359;26;20324;-72
2024/04/19 00:41:07;;;;;;;4.35;2.65;;;;;;;;;;5340834;26;20037;-72
2024/04/19 00:43:33;;;;;;;5.22;2.65;;;;;;;;;;5320234;26;20049;-72
2024/04/19 00:46:00;;;;;;;12.25;2.95;;;;;;;;;;5316163;26;20009;-72
2024/04/19 00:48:27;;;;;;;5.50;2.38;;;;;;;;;;5319097;26;20456;-72
2024/04/19 00:50:59;;;;;;;8.13;2.97;;;;;;;;;;5307398;26;20009;-72
2024/04/19 00:53:29;;;;;;;6.95;3.22;;;;;;;;;;5331834;26;20015;-72
2024/04/19 00:55:57;;;;;;;6.55;2.40;;;;;;;;;;5341372;26;20000;-72
2024/04/19 00:58:27;;;;;;;7.65;2.60;;;;;;;;;;5340065;26;20029;-72
2024/04/19 01:00:57;;;;;;;8.93;2.65;;;;;;;;;;5340529;26;20684;-72
2024/04/19 01:03:24;;;;;;;6.15;2.65;;;;;;;;;;5316362;26;20340;-71
2024/04/19 01:05:51;;;;;;;5.53;2.53;;;;;;;;;;5324871;26;20076;-72
2024/04/19 01:08:18;;;;;;;7.72;2.67;;;;;;;;;;5336059;26;20016;-72
2024/04/19 01:10:44;;;;;;;7.47;2.60;;;;;;;;;;5323863;26;20037;-71
2024/04/19 01:13:12;;;;;;;6.63;2.78;;;;;;;;;;5336020;26;20001;-72
2024/04/19 01:15:39;;;;;;;9.18;3.30;;;;;;;;;;5341521;26;20016;-72
2024/04/19 01:18:06;;;;;;;7.65;3.13;;;;;;;;;;5341675;26;20000;-72
2024/04/19 01:20:34;;;;;;;6.85;2.55;;;;;;;;;;5341674;26;20001;-72
2024/04/19 01:23:01;;;;;;;6.60;2.75;;;;;;;;;;5341913;26;20033;-71
2024/04/19 01:25:36;;;;;;;8.00;2.65;;;;;;;;;;5340910;26;20016;-71
2024/04/19 01:28:08;;;;;;;8.00;2.53;;;;;;;;;;5341785;26;20016;-71
2024/04/19 01:30:44;;;;;;;6.03;2.83;;;;;;;;;;5362898;26;20019;-72
2024/04/19 01:33:12;;;;;;;7.35;3.00;;;;;;;;;;5375741;26;20019;-72
2024/04/19 01:35:39;;;;;;;12.05;3.40;;;;;;;;;;5342344;26;20330;-71
2024/04/19 01:38:07;;;;;;;9.23;3.30;;;;;;;;;;5341188;26;20005;-72
2024/04/19 01:40:34;;;;;;;11.10;3.33;;;;;;;;;;5341389;26;20016;-72
2024/04/19 01:43:00;;;;;;;14.63;3.25;;;;;;;;;;5341520;26;20324;-72
2024/04/19 01:45:27;;;;;;;11.63;3.17;;;;;;;;;;5340593;26;20001;-72
2024/04/19 01:47:56;;;;;;;7.18;2.85;;;;;;;;;;5339426;26;20005;-71
2024/04/19 01:50:23;;;;;;;5.68;2.55;;;;;;;;;;5340751;26;20020;-72
2024/04/19 01:52:50;;;;;;;7.30;2.92;;;;;;;;;;5341415;26;20023;-72
2024/04/19 01:55:17;;;;;;;6.47;3.05;;;;;;;;;;5340732;26;20019;-72
2024/04/19 01:57:44;;;;;;;6.63;2.80;;;;;;;;;;5341039;26;20001;-72
2024/04/19 02:00:12;;;;;;;7.70;3.30;;;;;;;;;;5340937;26;20523;-72
2024/04/19 02:02:39;;;;;;;10.98;2.97;;;;;;;;;;5339365;26;20001;-71
2024/04/19 02:05:06;;;;;;;9.02;2.70;;;;;;;;;;5341134;26;20400;-72
2024/04/19 02:07:32;;;;;;;8.57;3.13;;;;;;;;;;5340797;26;20082;-72
2024/04/19 02:09:59;;;;;;;8.95;2.50;;;;;;;;;;5340167;26;20032;-72
2024/04/19 02:12:26;;;;;;;6.43;3.10;;;;;;;;;;5339940;26;20004;-72
2024/04/19 02:14:53;;;;;;;7.80;2.85;;;;;;;;;;5341474;26;20075;-72
2024/04/19 02:17:20;;;;;;;6.30;3.08;;;;;;;;;;5339713;26;20005;-72
2024/04/19 02:19:47;;;;;;;9.93;4.22;;;;;;;;;;5341345;26;20074;-72
2024/04/19 02:22:14;;;;;;;8.20;3.15;;;;;;;;;;5340007;26;20020;-72
2024/04/19 02:24:41;;;;;;;7.88;2.88;;;;;;;;;;5341245;26;20443;-72
2024/04/19 02:30:51;;;;;;;9.02;4.85;;;;;;;;;;5339792;26;20005;-72
2024/04/19 02:32:40;;;;;;;7.85;3.90;;;;;;;;;;5339909;26;20028;-72
2024/04/19 02:35:07;;;;;;;6.60;3.40;;;;;;;;;;5365929;26;20223;-72
2024/04/19 02:37:34;;;;;;;9.63;3.97;;;;;;;;;;5375018;26;20004;-72
2024/04/19 02:40:01;;;;;;;7.13;3.42;;;;;;;;;;5316696;26;20564;-72
2024/04/19 02:42:28;;;;;;;7.13;3.20;;;;;;;;;;5374150;26;19996;-71
2024/04/19 02:44:55;;;;;;;7.20;3.42;;;;;;;;;;5375431;26;20000;-72
2024/04/19 02:47:21;;;;;;;9.52;2.80;;;;;;;;;;5373710;26;20486;-72
2024/04/19 02:49:48;;;;;;;8.93;3.83;;;;;;;;;;5375436;26;20004;-72
2024/04/19 02:52:15;;;;;;;11.30;3.70;;;;;;;;;;5373458;26;20005;-72
2024/04/19 02:54:42;;;;;;;11.68;3.50;;;;;;;;;;5375538;26;20008;-71
2024/04/19 02:57:09;;;;;;;8.98;4.00;;;;;;;;;;5373878;26;20000;-72
2024/04/19 02:59:35;;;;;;;8.50;3.40;;;;;;;;;;5375468;26;20097;-71
2024/04/19 03:02:02;;;;;;;7.82;3.50;;;;;;;;;;5373301;26;20023;-72
2024/04/19 03:04:29;;;;;;;6.20;3.70;;;;;;;;;;5373871;26;20007;-71
2024/04/19 03:06:56;;;;;;;6.38;3.28;;;;;;;;;;5374279;26;20015;-72
2024/04/19 03:09:22;;;;;;;7.85;3.58;;;;;;;;;;5373889;26;20000;-71
2024/04/19 03:11:49;;;;;;;7.18;3.60;;;;;;;;;;5374091;26;20012;-72
2024/04/19 03:14:20;;;;;;;9.68;3.70;;;;;;;;;;5374409;26;20019;-72
2024/04/19 03:16:50;;;;;;;9.02;3.90;;;;;;;;;;5373930;26;20014;-72
2024/04/19 03:19:17;;;;;;;8.82;3.72;;;;;;;;;;5374207;26;20000;-71
2024/04/19 03:21:44;;;;;;;9.40;3.58;;;;;;;;;;5374941;26;20000;-72
2024/04/19 03:24:11;;;;;;;8.45;3.80;;;;;;;;;;5377591;26;20019;-71
2024/04/19 03:26:38;;;;;;;8.35;3.40;;;;;;;;;;5377527;26;20096;-72
2024/04/19 03:29:05;;;;;;;7.57;3.72;;;;;;;;;;5377618;26;20018;-72
2024/04/19 03:31:31;;;;;;;9.77;3.92;;;;;;;;;;5376785;26;20015;-72
2024/04/19 03:33:58;;;;;;;9.27;4.35;;;;;;;;;;5378348;26;20008;-72
2024/04/19 03:36:25;;;;;;;7.82;3.88;;;;;;;;;;5377222;26;20077;-72
2024/04/19 03:38:52;;;;;;;8.40;4.35;;;;;;;;;;5378081;26;20010;-72
2024/04/19 03:41:19;;;;;;;11.50;4.90;;;;;;;;;;5377240;26;20008;-72
2024/04/19 03:45:40;;;;;;;7.47;4.90;;;;;;;;;;5378127;26;20023;-72
2024/04/19 03:46:33;;;;;;;6.47;4.43;;;;;;;;;;5377312;26;20008;-72
2024/04/19 03:49:00;;;;;;;9.50;4.57;;;;;;;;;;5378041;26;20004;-72
2024/04/19 03:51:27;;;;;;;8.43;4.75;;;;;;;;;;5376267;26;20319;-72
2024/04/19 03:53:53;;;;;;;6.60;5.10;;;;;;;;;;5378192;26;19997;-72
2024/04/19 03:56:20;;;;;;;12.85;5.90;;;;;;;;;;5376543;26;20004;-72
2024/04/19 03:58:47;;;;;;;10.77;5.05;;;;;;;;;;5378251;26;20015;-72
2024/04/19 04:01:14;;;;;;;12.07;5.20;;;;;;;;;;5376305;26;20348;-72
2024/04/19 04:03:40;;;;;;;11.52;5.85;;;;;;;;;;5376263;26;20008;-72
2024/04/19 04:06:07;;;;;;;9.75;5.38;;;;;;;;;;5376667;26;20318;-72
2024/04/19 04:08:34;;;;;;;10.52;5.22;;;;;;;;;;5377532;26;20000;-72
2024/04/19 04:11:01;;;;;;;8.85;5.50;;;;;;;;;;5376720;26;20011;-72
2024/04/19 04:13:28;;;;;;;9.75;5.03;;;;;;;;;;5377269;26;20005;-72
2024/04/19 04:15:56;;;;;;;11.65;6.25;;;;;;;;;;5376914;26;20004;-72
2024/04/19 04:18:22;;;;;;;8.13;5.50;;;;;;;;;;5377115;26;20005;-72
2024/04/19 04:20:49;;;;;;;13.02;5.72;;;;;;;;;;5377157;26;20041;-72
2024/04/19 04:23:16;;;;;;;19.88;5.55;;;;;;;;;;5377070;26;20330;-72
2024/04/19 04:25:43;;;;;;;12.02;5.55;;;;;;;;;;5376400;26;20004;-72
2024/04/19 04:28:10;;;;;;;14.05;7.00;;;;;;;;;;5376722;26;20001;-72
2024/04/19 04:30:37;;;;;;;11.57;5.60;;;;;;;;;;5376773;26;20032;-72
2024/04/19 04:33:08;;;;;;;11.80;5.70;;;;;;;;;;5376924;26;20004;-72
2024/04/19 04:35:39;;;;;;;11.18;6.50;;;;;;;;;;5376465;26;20004;-72
2024/04/19 04:38:06;;;;;;;12.80;5.93;;;;;;;;;;5376562;26;20000;-72
2024/04/19 04:40:34;;;;;;;14.40;5.13;;;;;;;;;;5376812;26;20409;-72
2024/04/19 04:43:01;;;;;;;9.20;5.15;;;;;;;;;;5377588;26;20504;-72
2024/04/19 04:45:28;;;;;;;13.77;5.78;;;;;;;;;;5376270;26;20077;-72
2024/04/19 04:47:55;;;;;;;14.13;5.93;;;;;;;;;;5377113;26;20074;-72
2024/04/19 04:50:23;;;;;;;10.70;6.13;;;;;;;;;;5375555;26;20012;-71
2024/04/19 04:52:51;;;;;;;19.08;7.05;;;;;;;;;;5376640;26;20019;-72
2024/04/19 04:55:18;;;;;;;17.17;8.18;;;;;;;;;;5376651;26;20019;-72
2024/04/19 04:57:44;;;;;;;10.38;6.18;;;;;;;;;;5376727;26;20026;-72
2024/04/19 05:00:12;;;;;;;16.42;6.82;;;;;;;;;;5376209;26;20427;-72
2024/04/19 05:02:39;;;;;;;13.63;7.43;;;;;;;;;;5374460;26;20000;-72
2024/04/19 05:05:06;;;;;;;17.42;7.47;;;;;;;;;;5376091;26;20011;-72
2024/04/19 05:07:32;;;;;;;11.70;6.07;;;;;;;;;;5376509;26;20449;-72
2024/04/19 05:09:59;;;;;;;14.15;6.28;;;;;;;;;;5376357;26;20015;-73
2024/04/19 05:12:27;;;;;;;11.52;6.28;;;;;;;;;;5344778;26;20015;-72
2024/04/19 05:14:54;;;;;;;17.63;7.32;;;;;;;;;;5376953;26;20015;-72
2024/04/19 05:17:21;;;;;;;16.35;7.20;;;;;;;;;;5375347;26;20005;-72
2024/04/19 05:19:48;;;;;;;17.25;7.07;;;;;;;;;;5376989;26;20000;-72
2024/04/19 05:22:15;;;;;;;15.60;7.53;;;;;;;;;;5374930;26;20011;-73
2024/04/19 05:24:45;;;;;;;10.82;6.57;;;;;;;;;;5376492;26;20062;-72
2024/04/19 05:27:12;;;;;;;15.68;7.22;;;;;;;;;;5375135;26;20100;-73
2024/04/19 05:29:39;;;;;;;17.52;7.88;;;;;;;;;;5376640;26;20027;-72
2024/04/19 05:32:06;;;;;;;12.90;7.13;;;;;;;;;;5375404;26;20004;-72
2024/04/19 05:34:32;;;;;;;13.60;7.55;;;;;;;;;;5369564;26;20386;-72
2024/04/19 05:37:02;;;;;;;13.77;7.10;;;;;;;;;;5341096;26;20015;-72
2024/04/19 05:39:29;;;;;;;22.90;8.52;;;;;;;;;;5355694;26;20408;-72
2024/04/19 05:41:56;;;;;;;14.68;6.65;;;;;;;;;;5341390;26;20000;-72
2024/04/19 05:44:22;;;;;;;13.98;6.93;;;;;;;;;;5339932;26;20009;-72
2024/04/19 05:46:49;;;;;;;11.18;6.93;;;;;;;;;;5340416;26;20020;-72
2024/04/19 05:49:16;;;;;;;18.98;7.82;;;;;;;;;;5340465;26;20001;-72
2024/04/19 05:51:43;;;;;;;16.95;8.55;;;;;;;;;;5340110;26;20000;-72
2024/04/19 05:54:10;;;;;;;15.15;7.75;;;;;;;;;;5341481;26;20108;-72
2024/04/19 05:56:37;;;;;;;14.55;7.78;;;;;;;;;;5340870;26;20005;-72
2024/04/19 05:59:03;;;;;;;16.58;7.88;;;;;;;;;;5340980;26;20020;-72
2024/04/19 06:01:30;;;;;;;18.48;7.40;;;;;;;;;;5349354;26;20001;-72
2024/04/19 06:03:57;;;;;;;16.83;7.55;;;;;;;;;;5339666;26;20341;-71
2024/04/19 06:06:24;;;;;;;11.60;7.70;;;;;;;;;;5340744;26;20034;-72
2024/04/19 06:08:51;;;;;;;14.10;6.65;;;;;;;;;;5340694;26;20001;-72
2024/04/19 06:11:18;;;;;;;13.68;7.35;;;;;;;;;;5339837;26;20407;-72
2024/04/19 06:13:47;;;;;;;14.38;7.75;;;;;;;;;;5341034;26;20000;-72
2024/04/19 06:16:14;;;;;;;13.20;7.53;;;;;;;;;;5339881;26;20000;-72
2024/04/19 06:18:40;;;;;;;11.80;7.07;;;;;;;;;;5340953;26;20053;-72
2024/04/19 06:21:07;;;;;;;15.80;7.25;;;;;;;;;;5340234;26;20001;-72
2024/04/19 06:23:34;;;;;;;12.18;7.60;;;;;;;;;;5340495;26;20020;-72
2024/04/19 06:26:06;;;;;;;17.15;7.63;;;;;;;;;;5340178;26;20009;-72
2024/04/19 06:28:35;;;;;;;19.23;8.15;;;;;;;;;;5353128;26;20005;-72
2024/04/19 06:31:09;;;;;;;22.25;9.93;;;;;;;;;;5332077;26;20003;-73
2024/04/19 06:33:37;;;;;;;23.08;8.15;;;;;;;;;;5353231;26;20052;-72
2024/04/19 06:36:04;;;;;;;14.82;7.47;;;;;;;;;;5369022;26;20035;-72
2024/04/19 06:38:32;;;;;;;16.65;6.82;;;;;;;;;;5375794;26;20036;-73
2024/04/19 06:40:59;;;;;;;15.00;7.28;;;;;;;;;;5374472;26;20004;-73
2024/04/19 06:43:26;;;;;;;13.65;6.30;;;;;;;;;;5374615;26;20004;-75
2024/04/19 06:45:56;;;;;;;14.95;6.28;;;;;;;;;;5374812;26;20430;-74
2024/04/19 06:48:24;;;;;;;10.90;6.47;;;;;;;;;;5374939;26;20032;-72
2024/04/19 06:50:51;;;;;;;13.18;6.43;;;;;;;;;;5373892;26;20011;-72
2024/04/19 06:53:20;;;;;;;14.73;5.85;;;;;;;;;;5359369;26;20050;-72
2024/04/19 06:55:48;;;;;;;11.80;4.95;;;;;;;;;;5362772;26;20004;-72
2024/04/19 06:58:15;;;;;;;12.68;5.22;;;;;;;;;;5376761;26;20061;-72
2024/04/19 07:00:41;;;;;;;12.68;5.45;;;;;;;;;;5376399;26;20045;-72
2024/04/19 07:03:28;;;;;;;14.35;4.95;;;;;;;;;;5367241;26;20000;-72
2024/04/19 07:05:55;;;;;;;12.27;4.55;;;;;;;;;;5364481;26;20044;-72
2024/04/19 07:08:22;;;;;;;12.10;4.55;;;;;;;;;;5375767;26;20004;-72
2024/04/19 07:10:50;;;;;;;9.80;4.25;;;;;;;;;;5376391;26;20044;-72
2024/04/19 07:13:16;;;;;;;9.85;4.00;;;;;;;;;;5376759;26;20008;-74
2024/04/19 07:15:43;;;;;;;11.07;4.22;;;;;;;;;;5375951;26;20330;-75
2024/04/19 07:18:10;;;;;;;10.27;4.63;;;;;;;;;;5375978;26;20106;-74
2024/04/19 07:20:37;;;;;;;14.75;4.45;;;;;;;;;;5376500;26;20351;-75
2024/04/19 07:23:04;;;;;;;9.75;4.35;;;;;;;;;;5338931;26;20438;-75
2024/04/19 07:25:31;;;;;;;10.88;4.45;;;;;;;;;;5353081;26;20001;-72
2024/04/19 07:27:58;;;;;;;15.00;4.88;;;;;;;;;;5373781;26;20432;-72
2024/04/19 07:30:24;;;;;;;12.25;3.95;;;;;;;;;;5354648;26;20098;-72
2024/04/19 07:32:51;;;;;;;10.38;3.78;;;;;;;;;;5354431;26;20004;-72
2024/04/19 07:35:18;;;;;;;7.65;3.05;;;;;;;;;;5370168;26;20012;-72
2024/04/19 07:37:45;;;;;;;10.27;3.10;;;;;;;;;;5372532;26;20422;-72
2024/04/19 07:40:12;;;;;;;9.73;2.50;;;;;;;;;;5375364;26;20001;-72
2024/04/19 07:42:39;;;;;;;7.53;3.03;;;;;;;;;;5375381;26;20004;-72
2024/04/19 07:45:07;;;;;;;5.38;2.88;;;;;;;;;;5374245;26;20001;-72
2024/04/19 07:47:34;;;;;;;10.02;3.22;;;;;;;;;;5375464;26;20000;-71
2024/04/19 07:50:01;;;;;;;10.63;3.60;;;;;;;;;;5375921;26;20023;-72
2024/04/19 07:52:28;;;;;;;11.15;3.38;;;;;;;;;;5375100;26;20011;-71
2024/04/19 07:54:55;;;;;;;8.70;2.65;;;;;;;;;;5376707;26;20000;-71
2024/04/19 07:57:22;;;;;;;5.95;2.40;;;;;;;;;;5375092;26;20023;-72
2024/04/19 07:59:48;;;;;;;9.45;3.03;;;;;;;;;;5376096;26;20036;-71
2024/04/19 08:02:17;;;;;;;8.65;2.10;;;;;;;;;;5373709;26;20044;-72
2024/04/19 08:04:44;;;;;;;10.70;2.80;;;;;;;;;;5375941;26;20011;-72
2024/04/19 08:07:11;;;;;;;7.40;2.83;;;;;;;;;;5374674;26;20041;-72
2024/04/19 08:09:53;;;;;;;8.65;3.13;;;;;;;;;;5375837;26;20012;-71
2024/04/19 08:12:20;;;;;;;8.55;3.63;;;;;;;;;;5374998;26;20717;-72
2024/04/19 08:14:46;;;;;;;9.40;3.00;;;;;;;;;;5376192;26;20523;-71
2024/04/19 08:17:13;;;;;;;5.45;2.78;;;;;;;;;;5375448;26;20348;-71
2024/04/19 08:19:40;;;;;;;10.18;3.25;;;;;;;;;;5357175;26;20015;-72
2024/04/19 08:22:07;;;;;;;9.23;3.05;;;;;;;;;;5374986;26;20000;-72
2024/04/19 08:24:34;;;;;;;8.75;2.92;;;;;;;;;;5375116;26;20000;-72
2024/04/19 08:27:01;;;;;;;9.43;3.83;;;;;;;;;;5375121;26;20073;-72
2024/04/19 08:29:27;;;;;;;11.95;3.25;;;;;;;;;;5375643;26;20000;-72
2024/04/19 08:32:03;;;;;;;7.25;3.40;;;;;;;;;;5375379;26;20463;-72
2024/04/19 08:34:30;;;;;;;;;;;;;;;;;;5362249;26;20419;-72
2024/04/19 08:36:57;;;;;;;6.45;3.10;;;;;;;;;;5375471;26;19936;-72
2024/04/19 08:39:24;;;;;;;12.07;3.45;;;;;;;;;;5374943;26;20030;-72
2024/04/19 08:41:55;;;;;;;9.77;2.97;;;;;;;;;;5371263;26;20000;-72
2024/04/19 08:44:24;;;;;;;5.88;2.72;;;;;;;;;;5357895;26;20008;-72
2024/04/19 08:46:55;;;;;;;9.48;3.05;;;;;;;;;;5374969;26;20533;-72
2024/04/19 08:49:22;;;;;;;6.50;2.75;;;;;;;;;;5375183;26;20117;-72
2024/04/19 08:51:50;;;;;;;5.23;2.27;;;;;;;;;;5374240;26;20004;-72
2024/04/19 08:54:37;;;;;;;6.45;2.17;;;;;;;;;;5330821;26;20020;-72
2024/04/19 08:57:09;;;;;;;9.60;2.53;;;;;;;;;;5384472;26;20489;-72
2024/04/19 08:59:37;;;;;;;4.03;2.17;;;;;;;;;;5341578;26;20047;-72
2024/04/19 09:02:04;;;;;;;4.80;1.80;;;;;;;;;;5347304;26;20023;-74
2024/04/19 09:04:31;;;;;;;4.15;1.38;;;;;;;;;;5366153;26;20004;-73
2024/04/19 09:06:58;;;;;;;6.30;1.50;;;;;;;;;;5317785;26;20724;-73
2024/04/19 09:09:26;;;;;;;6.85;1.33;;;;;;;;;;5333986;26;20005;-74
2024/04/19 09:11:54;;;;;;;4.47;1.50;;;;;;;;;;5364839;26;20438;-71
2024/04/19 09:14:20;;;;;;;3.22;1.60;;;;;;;;;;5359685;26;20005;-71
2024/04/19 09:16:47;;;;;;;2.80;1.33;;;;;;;;;;5382497;26;20077;-71
2024/04/19 09:19:15;;;;;;;4.72;1.00;;;;;;;;;;5353847;26;20439;-71
2024/04/19 09:21:44;;;;;;;4.97;1.13;;;;;;;;;;5372521;26;20004;-71
2024/04/19 09:24:11;;;;;;;4.80;1.00;;;;;;;;;;5357022;26;20000;-71
2024/04/19 09:26:39;;;;;;;2.95;0.90;;;;;;;;;;5347924;26;20073;-71
2024/04/19 09:29:07;;;;;;;3.70;0.82;;;;;;;;;;5358239;26;20019;-71
2024/04/19 09:31:34;;;;;;;4.30;1.02;;;;;;;;;;5352023;26;20008;-71
2024/04/19 09:34:00;;;;;;;7.38;1.05;;;;;;;;;;5376680;26;20004;-73
2024/04/19 09:36:27;;;;;;;7.75;1.45;;;;;;;;;;5375060;26;20008;-73
2024/04/19 09:38:55;;;;;;;7.40;1.60;;;;;;;;;;5376757;26;20442;-73
2024/04/19 09:41:24;;;;;;;7.25;1.25;;;;;;;;;;5370828;26;20434;-73
2024/04/19 09:43:51;;;;;;;5.78;1.15;;;;;;;;;;5366063;26;20019;-73
2024/04/19 09:46:31;;;;;;;5.80;1.50;;;;;;;;;;5374921;26;20360;-76
2024/04/19 09:49:02;;;;;;;5.93;1.10;;;;;;;;;;5376213;26;20000;-73
2024/04/19 09:51:37;;;;;;;6.18;1.20;;;;;;;;;;5375678;26;20035;-71
2024/04/19 09:54:10;;;;;;;5.78;1.17;;;;;;;;;;5359787;26;20008;-71
2024/04/19 09:56:59;;;;;;;4.47;1.08;;;;;;;;;;5361163;26;20000;-71
2024/04/19 09:59:29;;;;;;;3.17;0.98;;;;;;;;;;5350266;26;20433;-71
2024/04/19 10:01:56;;;;;;;3.20;1.13;;;;;;;;;;5368412;26;20019;-71
2024/04/19 10:04:26;;;;;;;2.35;1.00;;;;;;;;;;5373293;26;20012;-75
2024/04/19 10:06:54;;;;;;;7.15;1.20;;;;;;;;;;5312776;26;20040;-71
2024/04/19 10:09:25;;;;;;;3.67;0.95;;;;;;;;;;5365093;26;20316;-71
2024/04/19 10:11:53;;;;;;;4.13;0.95;;;;;;;;;;5369043;26;20041;-70
2024/04/19 10:14:21;;;;;;;4.22;0.82;;;;;;;;;;5358124;26;20001;-71
2024/04/19 10:16:48;;;;;;;4.28;1.00;;;;;;;;;;5352388;26;20000;-71
2024/04/19 10:19:16;;;;;;;5.18;2.10;;;;;;;;;;5357092;26;20026;-71
2024/04/19 10:21:43;;;;;;;3.40;0.90;;;;;;;;;;5360106;26;20005;-70
2024/04/19 10:24:14;;;;;;;6.88;1.10;;;;;;;;;;5330994;26;20265;-71
2024/04/19 10:26:43;;;;;;;5.03;1.15;;;;;;;;;;5353276;26;20004;-71
2024/04/19 10:29:13;;;;;;;9.57;1.40;;;;;;;;;;5331581;26;20779;-71
2024/04/19 10:31:51;;;;;;;3.25;0.70;;;;;;;;;;5339638;26;20019;-70
2024/04/19 10:34:18;;;;;;;4.97;0.93;;;;;;;;;;5352702;26;20012;-71
2024/04/19 10:36:46;;;;;;;6.68;1.00;;;;;;;;;;5320614;26;20001;-71
2024/04/19 10:39:13;;;;;;;3.75;0.85;;;;;;;;;;5331006;26;20012;-71
2024/04/19 10:41:52;;;;;;;2.85;0.90;;;;;;;;;;5344005;26;20430;-71
2024/04/19 10:44:20;;;;;;;6.90;1.00;;;;;;;;;;5337883;26;20443;-71
2024/04/19 10:46:51;;;;;;;11.48;0.93;;;;;;;;;;5348367;26;20014;-71
2024/04/19 10:49:20;;;;;;;4.88;0.95;;;;;;;;;;5342448;26;20019;-70
2024/04/19 10:51:49;;;;;;;2.70;0.77;;;;;;;;;;5352403;26;20005;-70
2024/04/19 10:54:16;;;;;;;3.03;0.80;;;;;;;;;;5361835;26;20460;-71
2024/04/19 10:56:44;;;;;;;6.03;1.00;;;;;;;;;;5362195;26;20008;-71
2024/04/19 10:59:11;;;;;;;3.22;1.13;;;;;;;;;;5350671;26;20008;-71
2024/04/19 11:01:40;;;;;;;4.93;1.00;;;;;;;;;;5371885;26;20418;-71
2024/04/19 11:04:08;;;;;;;7.07;0.95;;;;;;;;;;5371681;26;20008;-71
2024/04/19 11:06:36;;;;;;;7.47;1.13;;;;;;;;;;5372690;26;20005;-71
2024/04/19 11:09:03;;;;;;;8.30;1.45;;;;;;;;;;5373522;26;20015;-70
2024/04/19 11:11:37;;;;;;;7.18;1.17;;;;;;;;;;5372760;26;20016;-71
2024/04/19 11:14:08;;;;;;;8.10;1.30;;;;;;;;;;5372850;26;20000;-74
2024/04/19 11:16:35;;;;;;;4.50;1.38;;;;;;;;;;5371137;26;20437;-70
2024/04/19 11:19:04;;;;;;;6.00;1.42;;;;;;;;;;5352002;26;20011;-70
2024/04/19 11:21:33;;;;;;;4.28;1.00;;;;;;;;;;5372583;26;20008;-71
2024/04/19 11:24:00;;;;;;;6.35;1.13;;;;;;;;;;5373050;26;20008;-71
2024/04/19 11:26:27;;;;;;;6.55;1.10;;;;;;;;;;5371534;26;20019;-71
2024/04/19 11:28:55;;;;;;;3.08;1.02;;;;;;;;;;5372811;26;20078;-71
2024/04/19 11:31:22;;;;;;;6.60;1.30;;;;;;;;;;5372117;26;20053;-71
2024/04/19 11:33:54;;;;;;;3.63;1.30;;;;;;;;;;5372932;26;20019;-71
2024/04/19 11:36:23;;;;;;;9.95;1.30;;;;;;;;;;5338624;26;20017;-71
2024/04/19 11:38:50;;;;;;;3.30;0.98;;;;;;;;;;5337322;26;20005;-71
2024/04/19 11:41:17;;;;;;;5.28;0.80;;;;;;;;;;5351181;26;20016;-71
2024/04/19 11:43:44;;;;;;;6.20;1.10;;;;;;;;;;5333622;26;20010;-71
2024/04/19 11:46:11;;;;;;;5.45;1.25;;;;;;;;;;5327522;26;20004;-71
2024/04/19 11:48:37;;;;;;;6.45;1.30;;;;;;;;;;5341196;26;20016;-71
2024/04/19 11:51:08;;;;;;;10.50;1.55;;;;;;;;;;5340792;26;20505;-71
2024/04/19 11:53:35;;;;;;;8.68;1.40;;;;;;;;;;5341334;26;20012;-71
2024/04/19 11:56:02;;;;;;;4.55;1.30;;;;;;;;;;5341463;26;20464;-70
2024/04/19 11:58:29;;;;;;;7.28;0.93;;;;;;;;;;5341066;26;20345;-71
2024/04/19 12:00:56;;;;;;;6.43;1.50;;;;;;;;;;5340431;26;20001;-71
2024/04/19 12:03:23;;;;;;;6.38;1.00;;;;;;;;;;5339087;26;20083;-71
2024/04/19 12:05:50;;;;;;;8.70;1.50;;;;;;;;;;5340837;26;19997;-70
2024/04/19 12:08:17;;;;;;;2.95;0.90;;;;;;;;;;5341153;26;20023;-70
2024/04/19 12:10:44;;;;;;;5.38;1.00;;;;;;;;;;5340526;26;20011;-71
2024/04/19 12:13:12;;;;;;;5.55;1.10;;;;;;;;;;5340976;26;20001;-71
2024/04/19 12:16:00;;;;;;;4.22;1.00;;;;;;;;;;5340603;26;20074;-71
2024/04/19 12:18:46;;;;;;;8.20;1.48;;;;;;;;;;5318056;26;20008;-71
2024/04/19 12:21:15;;;;;;;4.50;1.17;;;;;;;;;;5318426;26;20013;-71
2024/04/19 12:23:44;;;;;;;;;;;;;;;;;;5332845;26;20005;-70
2024/04/19 12:26:13;;;;;;;10.38;1.52;;;;;;;;;;5306543;26;19927;-72
2024/04/19 12:28:41;;;;;;;7.30;1.70;;;;;;;;;;5331271;26;20324;-72
2024/04/19 12:31:22;;;;;;;9.35;1.35;;;;;;;;;;5330325;26;21105;-72
2024/04/19 12:33:49;;;;;;;7.53;1.48;;;;;;;;;;5330879;26;20016;-72
2024/04/19 12:36:16;;;;;;;6.20;1.30;;;;;;;;;;5329530;26;20099;-72
2024/04/19 12:38:43;;;;;;;6.22;1.58;;;;;;;;;;5329858;26;20393;-72
2024/04/19 12:41:10;;;;;;;10.32;1.70;;;;;;;;;;5331236;26;20000;-72
2024/04/19 12:43:37;;;;;;;12.50;1.58;;;;;;;;;;5332112;26;20011;-72
2024/04/19 12:46:04;;;;;;;7.72;2.03;;;;;;;;;;5331127;26;20542;-72
2024/04/19 12:48:31;;;;;;;8.68;1.90;;;;;;;;;;5331959;26;20011;-72
2024/04/19 12:50:58;;;;;;;5.70;1.67;;;;;;;;;;5331717;26;20082;-72
2024/04/19 12:53:25;;;;;;;8.32;1.90;;;;;;;;;;5331521;26;20634;-72
2024/04/19 12:55:52;;;;;;;5.68;1.35;;;;;;;;;;5331204;26;20001;-72
2024/04/19 12:58:21;;;;;;;5.18;1.65;;;;;;;;;;5331718;26;20001;-72
2024/04/19 13:00:48;;;;;;;10.02;1.83;;;;;;;;;;5331550;26;19997;-72
2024/04/19 13:03:14;;;;;;;8.57;1.50;;;;;;;;;;5329442;26;20004;-72
2024/04/19 13:05:42;;;;;;;9.38;1.63;;;;;;;;;;5331526;26;20019;-72
2024/04/19 13:08:08;;;;;;;9.57;1.52;;;;;;;;;;5331460;26;20457;-72
2024/04/19 13:10:37;;;;;;;4.50;1.35;;;;;;;;;;5330825;26;20019;-72
2024/04/19 13:13:12;;;;;;;7.45;1.90;;;;;;;;;;5331347;26;20001;-72
2024/04/19 13:15:40;;;;;;;7.45;1.80;;;;;;;;;;5331596;26;20017;-71
2024/04/19 13:18:07;;;;;;;9.88;1.90;;;;;;;;;;5331411;26;20310;-72
2024/04/19 13:20:35;;;;;;;7.80;1.88;;;;;;;;;;5330780;26;20436;-72
2024/04/19 13:23:01;;;;;;;7.80;1.83;;;;;;;;;;5331014;26;20019;-71
2024/04/19 13:25:28;;;;;;;8.00;1.55;;;;;;;;;;5330242;26;19997;-72
2024/04/19 13:27:55;;;;;;;7.95;1.95;;;;;;;;;;5308200;26;20018;-72
2024/04/19 13:30:23;;;;;;;7.93;1.63;;;;;;;;;;5331014;26;20012;-72
2024/04/19 13:32:50;;;;;;;10.48;1.83;;;;;;;;;;5307683;26;20002;-71
2024/04/19 13:35:17;;;;;;;7.85;1.90;;;;;;;;;;5333669;26;20352;-71
2024/04/19 13:37:44;;;;;;;11.23;1.40;;;;;;;;;;5363479;26;20008;-71
2024/04/19 13:40:10;;;;;;;7.47;2.05;;;;;;;;;;5365287;26;20007;-72
2024/04/19 13:42:37;;;;;;;8.05;1.73;;;;;;;;;;5365478;26;20011;-71
2024/04/19 13:45:04;;;;;;;8.45;1.60;;;;;;;;;;5380015;26;20526;-71
2024/04/19 13:47:31;;;;;;;10.88;2.13;;;;;;;;;;5346296;26;20044;-71
2024/04/19 13:50:02;;;;;;;12.07;1.90;;;;;;;;;;5335117;26;20055;-71
2024/04/19 13:52:29;;;;;;;7.53;1.83;;;;;;;;;;5364613;26;20443;-71
2024/04/19 13:54:56;;;;;;;6.25;1.65;;;;;;;;;;5366588;26;20004;-71
2024/04/19 13:57:23;;;;;;;9.38;1.70;;;;;;;;;;5362842;26;20343;-71
2024/04/19 13:59:51;;;;;;;8.40;1.75;;;;;;;;;;5351888;26;20053;-71
2024/04/19 14:02:18;;;;;;;6.72;2.30;;;;;;;;;;5363419;26;20008;-71
2024/04/19 14:04:44;;;;;;;10.65;2.10;;;;;;;;;;5364850;26;20004;-72
2024/04/19 14:07:11;;;;;;;9.73;2.17;;;;;;;;;;5357583;26;20406;-71
2024/04/19 14:09:39;;;;;;;7.75;2.00;;;;;;;;;;5336462;26;20001;-74
2024/04/19 14:12:06;;;;;;;11.50;2.33;;;;;;;;;;5326191;26;20319;-74
2024/04/19 14:14:33;;;;;;;12.65;2.30;;;;;;;;;;5335213;26;20000;-71
2024/04/19 14:17:00;;;;;;;8.65;2.00;;;;;;;;;;5342734;26;20283;-72
2024/04/19 14:19:27;;;;;;;9.82;1.70;;;;;;;;;;5352332;26;20101;-72
2024/04/19 14:21:54;;;;;;;7.95;1.80;;;;;;;;;;5368920;26;20051;-72
2024/04/19 14:24:22;;;;;;;10.05;2.10;;;;;;;;;;5368052;26;20022;-71
2024/04/19 14:26:49;;;;;;;9.02;2.22;;;;;;;;;;5349307;26;20014;-71
2024/04/19 14:29:19;;;;;;;10.80;2.45;;;;;;;;;;5361486;26;20004;-71
2024/04/19 14:31:45;;;;;;;12.15;2.53;;;;;;;;;;5364806;26;20454;-72
2024/04/19 14:34:12;;;;;;;13.98;2.42;;;;;;;;;;5363600;26;20004;-71
2024/04/19 14:36:41;;;;;;;15.27;2.58;;;;;;;;;;5350279;26;20011;-71
2024/04/19 14:39:09;;;;;;;11.52;2.20;;;;;;;;;;5357765;26;20078;-72
2024/04/19 14:41:37;;;;;;;13.02;2.45;;;;;;;;;;5362951;26;20000;-71
2024/04/19 14:44:03;;;;;;;11.13;2.28;;;;;;;;;;5399793;26;20039;-72
2024/04/19 14:46:30;;;;;;;11.77;2.30;;;;;;;;;;5372730;26;20019;-71